This is the latest recevied weather packets stored in our database for station/object N4CRH-13. If no packets are shown the sender has not sent any weather packets the latest 10 day(s).
| Time | Temp. | Humidity | Pressure | Rain* | Wind** | Luminosity | Snow |
|---|---|---|---|---|---|---|---|
| 1778119644 | 0.56° C | 88% | 1295.2 hPa | 0 mm | - | 1 W/m² | - |
| 1778119340 | 0.56° C | 89% | 1295.3 hPa | 0 mm | - | 2 W/m² | - |
| 1778119038 | 0° C | 89% | 1295.2 hPa | 0 mm | - | 3 W/m² | - |
| 1778118735 | 0.56° C | 89% | 1295.1 hPa | 0 mm | - | 5 W/m² | - |
| 1778118432 | 0° C | 89% | 1295.3 hPa | 0 mm | - | 7 W/m² | - |
| 1778118128 | 0° C | 90% | 1295.3 hPa | 0 mm | - | 9 W/m² | - |
| 1778117825 | 0° C | 90% | 1295.3 hPa | 0 mm | - | 11 W/m² | - |
| 1778117522 | 0.56° C | 87% | 1295.2 hPa | 0 mm | - | 14 W/m² | - |
| 1778117219 | 1.11° C | 86% | 1295.6 hPa | 0 mm | - | 18 W/m² | - |
| 1778116915 | 1.67° C | 86% | 1295.4 hPa | 0 mm | - | 23 W/m² | - |
| 1778116613 | 1.67° C | 85% | 1295.4 hPa | 0 mm | - | 27 W/m² | - |
| 1778116308 | 2.22° C | 84% | 1295.4 hPa | 0 mm | - | 32 W/m² | - |
| 1778116003 | 2.22° C | 84% | 1295.3 hPa | 0 mm | - | 37 W/m² | - |
| 1778115700 | 2.22° C | 84% | 1295.1 hPa | 0 mm | - | 43 W/m² | - |
| 1778115397 | 2.22° C | 84% | 1295.2 hPa | 0 mm | - | 50 W/m² | - |
| 1778115093 | 1.11° C | 85% | 1295.3 hPa | 0 mm | - | 51 W/m² | - |
| 1778114791 | 1.11° C | 85% | 1295.2 hPa | 0 mm | - | 57 W/m² | - |
| 1778114488 | 1.11° C | 85% | 1295.1 hPa | 0 mm | - | 60 W/m² | - |
| 1778114184 | 1.67° C | 83% | 1295.2 hPa | 0 mm | - | 66 W/m² | - |
| 1778113879 | 1.67° C | 83% | 1295.2 hPa | 0 mm | - | 71 W/m² | - |
| 1778113576 | 1.67° C | 84% | 1295.2 hPa | 0 mm | - | 77 W/m² | - |
| 1778113272 | 1.67° C | 85% | 1295.2 hPa | 0 mm | - | 85 W/m² | - |
| 1778112969 | 1.67° C | 85% | 1295.3 hPa | 0 mm | - | 103 W/m² | - |
| 1778112666 | 1.67° C | 85% | 1295.3 hPa | 0 mm | - | 111 W/m² | - |
| 1778112362 | 0.56° C | 87% | 1295.4 hPa | 0 mm | - | 138 W/m² | - |
* Rain latest hour (hover to see other rain measurements)
** Current wind speed in m/s (hover to see current wind gust speed)